Imperial, Missouri
Current Conditions -  °F | °C
As of 9:53 PM on Monday 22 Dec 2014 (Local Time) from KCPS Reporting Station
Overcast Overcast  
Wind Chill: 52°   Ceiling: 4800
Heat Index: 52°   Visibility: 10mi
Dew Point: 50°   Wind: 6mph
Humidity: 93%   Direction: 190°S
Pressure: 29.54"   Gusts: NA
Location:  38.37°N, 90.37°W
Report Text: KCPS 230353Z AUTO 19005KT 10SM FEW015 BKN048 OVC060 11/10 A2954 RMK AO2 RAE51 SLP005 P0004 T01110100 TSNO
Loading
Personal Weather Stations






























Interactive Weather Map New forecast layout! Learn more

10-Day Weather Forecast

Advertisements
Track Severe Weather on mobile